Latest Weather Observations for Ocean Reef

IDW60901

Issued at 11:55 pm WST Thursday 21 August 2014 (issued every 10 minutes, with the page automatically refreshed every 10 minutes)

About weather observations | Map of Perth area stations | Latest observations for Perth area | Other Formats
Station Details ID: 009214 Name: OCEAN REEF Lat: -31.76 Lon: 115.73 Height: 10.0 m
Data from the previous 72 hours. | See also: Recent months for locations in Western Australia
Date/Time
WST
Tmp

°C
App
Tmp
°C
Dew
Point
°C
Rel
Hum
%
Delta-T

°C
Wind Press
QNH
hPa
Press
MSL
hPa
Rain
since
9 am
mm
Dir
 
Spd
km/h
Gust
km/h
Spd
kts
Gust
kts
21/11:30pm - - - - - W 41 50 22 27 - - -
21/11:00pm - - - - - W 39 46 21 25 - - -
21/10:30pm - - - - - WNW 33 39 18 21 - - -
21/10:00pm - - - - - W 35 41 19 22 - - -
21/09:30pm - - - - - WNW 33 41 18 22 - - -
21/09:00pm - - - - - WNW 33 41 18 22 - - -
21/08:30pm - - - - - WNW 32 37 17 20 - - -
21/08:00pm - - - - - WNW 30 35 16 19 - - -
21/07:30pm - - - - - WNW 26 32 14 17 - - -
21/07:00pm - - - - - WNW 28 33 15 18 - - -
21/06:30pm - - - - - NNW 24 28 13 15 - - -
21/06:00pm - - - - - NW 22 28 12 15 - - -
21/05:30pm - - - - - NNW 19 22 10 12 - - -
21/05:00pm - - - - - W 30 35 16 19 - - -
21/04:30pm - - - - - W 22 28 12 15 - - -
21/04:00pm - - - - - W 30 39 16 21 - - -
21/03:30pm - - - - - W 33 41 18 22 - - -
21/03:00pm - - - - - W 39 50 21 27 - - -
21/02:53pm - - - - - W 43 50 23 27 - - -
21/02:43pm - - - - - NW 30 50 16 27 - - -
21/02:30pm - - - - - NW 39 48 21 26 - - -
21/02:00pm - - - - - NW 35 46 19 25 - - -
21/01:30pm - - - - - NW 33 39 18 21 - - -
21/01:00pm - - - - - NW 32 37 17 20 - - -
21/12:30pm - - - - - NW 33 37 18 20 - - -
21/12:00pm - - - - - NW 33 39 18 21 - - -
21/11:30am - - - - - WNW 30 35 16 19 - - -
21/11:00am - - - - - WNW 35 39 19 21 - - -
21/10:30am - - - - - WNW 35 43 19 23 - - -
21/10:00am - - - - - WNW 39 46 21 25 - - -
21/09:30am - - - - - W 35 41 19 22 - - -
21/09:00am - - - - - WNW 41 50 22 27 - - -
21/08:30am - - - - - W 35 41 19 22 - - -
21/08:00am - - - - - W 41 50 22 27 - - -
21/07:30am - - - - - W 43 52 23 28 - - -
21/07:00am - - - - - WNW 32 39 17 21 - - -
21/06:38am - - - - - WNW 35 44 19 24 - - -
21/06:30am - - - - - NNW 44 54 24 29 - - -
21/06:18am - - - - - N 37 56 20 30 - - -
21/06:00am - - - - - N 26 48 14 26 - - -
21/05:56am - - - - - N 28 48 15 26 - - -
21/05:30am - - - - - N 26 37 14 20 - - -
21/05:00am - - - - - N 22 33 12 18 - - -
21/04:30am - - - - - N 24 33 13 18 - - -
21/04:00am - - - - - N 22 35 12 19 - - -
21/03:30am - - - - - N 20 35 11 19 - - -
21/03:00am - - - - - N 24 37 13 20 - - -
21/02:30am - - - - - N 22 33 12 18 - - -
21/02:00am - - - - - N 24 35 13 19 - - -
21/01:30am - - - - - N 24 41 13 22 - - -
21/01:00am - - - - - NNE 20 35 11 19 - - -
21/12:30am - - - - - N 20 28 11 15 - - -
21/12:00am - - - - - N 20 30 11 16 - - -
 
Date/Time
WST
Tmp

°C
App
Tmp
°C
Dew
Point
°C
Rel
Hum
%
Delta-T

°C
Wind Press
QNH
hPa
Press
MSL
hPa
Rain
since
9 am
mm
Dir
 
Spd
km/h
Gust
km/h
Spd
kts
Gust
kts
20/11:30pm - - - - - N 22 33 12 18 - - -
20/11:00pm - - - - - N 19 30 10 16 - - -
20/10:30pm - - - - - NNE 20 30 11 16 - - -
20/10:00pm - - - - - NNE 22 30 12 16 - - -
20/09:30pm - - - - - NNE 19 30 10 16 - - -
20/09:00pm - - - - - NNE 17 26 9 14 - - -
20/08:30pm - - - - - NNE 19 28 10 15 - - -
20/08:00pm - - - - - NNE 17 26 9 14 - - -
20/07:30pm - - - - - N 13 19 7 10 - - -
20/07:00pm - - - - - NNW 35 41 19 22 - - -
20/06:30pm - - - - - NNW 32 37 17 20 - - -
20/06:00pm - - - - - NNW 33 37 18 20 - - -
20/05:30pm - - - - - NW 28 30 15 16 - - -
20/05:00pm - - - - - NNW 20 30 11 16 - - -
20/04:30pm - - - - - N 20 24 11 13 - - -
20/04:00pm - - - - - NNW 19 22 10 12 - - -
20/03:30pm - - - - - NNW 26 28 14 15 - - -
20/03:00pm - - - - - N 20 28 11 15 - - -
20/02:30pm - - - - - N 19 22 10 12 - - -
20/02:00pm - - - - - N 22 26 12 14 - - -
20/01:30pm - - - - - NNW 15 19 8 10 - - -
20/01:00pm - - - - - NNW 35 41 19 22 - - -
20/12:30pm - - - - - N 24 32 13 17 - - -
20/12:00pm - - - - - NNW 19 20 10 11 - - -
20/11:30am - - - - - N 17 20 9 11 - - -
20/11:00am - - - - - N 19 28 10 15 - - -
20/10:30am - - - - - N 15 22 8 12 - - -
20/10:00am - - - - - N 19 28 10 15 - - -
20/09:30am - - - - - N 24 37 13 20 - - -
20/09:00am - - - - - N 19 33 10 18 - - -
20/08:30am - - - - - N 17 24 9 13 - - -
20/08:00am - - - - - NNE 20 28 11 15 - - -
20/07:30am - - - - - NNE 19 28 10 15 - - -
20/07:00am - - - - - NE 17 20 9 11 - - -
20/06:30am - - - - - NE 17 20 9 11 - - -
20/06:00am - - - - - NE 17 20 9 11 - - -
20/05:30am - - - - - NNE 13 17 7 9 - - -
20/05:00am - - - - - N 11 15 6 8 - - -
20/04:30am - - - - - NNE 9 13 5 7 - - -
20/04:00am - - - - - NNE 15 22 8 12 - - -
20/03:30am - - - - - NNE 13 19 7 10 - - -
20/03:00am - - - - - NNE 13 15 7 8 - - -
20/02:30am - - - - - NE 11 13 6 7 - - -
20/02:00am - - - - - NNE 9 13 5 7 - - -
20/01:30am - - - - - NE 11 13 6 7 - - -
20/01:00am - - - - - NNE 13 17 7 9 - - -
20/12:30am - - - - - NE 13 17 7 9 - - -
20/12:00am - - - - - NE 15 17 8 9 - - -
 
Date/Time
WST
Tmp

°C
App
Tmp
°C
Dew
Point
°C
Rel
Hum
%
Delta-T

°C
Wind Press
QNH
hPa
Press
MSL
hPa
Rain
since
9 am
mm
Dir
 
Spd
km/h
Gust
km/h
Spd
kts
Gust
kts
19/11:30pm - - - - - NE 11 15 6 8 - - -
19/11:00pm - - - - - NE 9 13 5 7 - - -
19/10:30pm - - - - - ENE 11 11 6 6 - - -
19/10:00pm - - - - - E 9 11 5 6 - - -
19/09:30pm - - - - - N 13 17 7 9 - - -
19/09:00pm - - - - - NNW 11 20 6 11 - - -
19/08:30pm - - - - - N 7 9 4 5 - - -
19/08:00pm - - - - - ENE 6 7 3 4 - - -
19/07:30pm - - - - - ENE 6 9 3 5 - - -
19/07:00pm - - - - - N 11 15 6 8 - - -
19/06:30pm - - - - - N 11 13 6 7 - - -
19/06:00pm - - - - - N 7 9 4 5 - - -
19/05:30pm - - - - - NNW 15 17 8 9 - - -
19/05:00pm - - - - - NNW 20 22 11 12 - - -
19/04:30pm - - - - - N 17 20 9 11 - - -
19/04:00pm - - - - - NNW 20 24 11 13 - - -
19/03:30pm - - - - - WNW 28 32 15 17 - - -
19/03:00pm - - - - - WNW 15 19 8 10 - - -
19/02:30pm - - - - - NW 11 13 6 7 - - -
19/02:00pm - - - - - WNW 11 13 6 7 - - -
19/01:30pm - - - - - W 9 11 5 6 - - -
19/01:00pm - - - - - W 7 11 4 6 - - -
19/12:30pm - - - - - W 6 9 3 5 - - -
19/12:00pm - - - - - WNW 7 9 4 5 - - -
19/11:30am - - - - - WNW 7 9 4 5 - - -
19/11:00am - - - - - WNW 13 15 7 8 - - -
19/10:30am - - - - - SW 11 13 6 7 - - -
19/10:00am - - - - - SSW 13 15 7 8 - - -
19/09:30am - - - - - S 17 26 9 14 - - -
19/09:00am - - - - - SSW 24 30 13 16 - - -
19/08:30am - - - - - SW 26 32 14 17 - - -
19/08:00am - - - - - W 9 11 5 6 - - -
19/07:30am - - - - - N 9 13 5 7 - - -
19/07:00am - - - - - NE 7 11 4 6 - - -
19/06:30am - - - - - NNE 9 11 5 6 - - -
19/06:00am - - - - - ENE 9 11 5 6 - - -
19/05:30am - - - - - SE 11 15 6 8 - - -
19/05:00am - - - - - SSE 20 30 11 16 - - -
19/04:42am - - - - - SW 32 37 17 20 - - -
19/04:38am - - - - - W 37 43 20 23 - - -
19/04:30am - - - - - SSW 24 35 13 19 - - -
19/04:00am - - - - - WSW 33 41 18 22 - - -
19/03:30am - - - - - WSW 33 39 18 21 - - -
19/03:00am - - - - - W 33 39 18 21 - - -
19/02:30am - - - - - W 32 37 17 20 - - -
19/02:00am - - - - - W 30 35 16 19 - - -
19/01:30am - - - - - W 28 32 15 17 - - -
19/01:00am - - - - - WSW 28 32 15 17 - - -
19/12:30am - - - - - WSW 32 35 17 19 - - -
19/12:00am - - - - - WSW 32 39 17 21 - - -

Latest Capital City Observations: Canberra | Sydney | Melbourne | Brisbane | Adelaide | Perth | Hobart | Darwin

Other Formats:

Comma delimited format used in spreadsheet applications
http://www.bom.gov.au/fwo/IDW60901/IDW60901.94607.axf

JavaScript Object Notation format (JSON) in row-major order
http://www.bom.gov.au/fwo/IDW60901/IDW60901.94607.json